Volney, New York
Current Conditions -  °F | °C
As of 4:54 PM on Wednesday 26 Nov 2014 (Local Time) from KFZY Reporting Station
Light Snow Light Snow  
Wind Chill: 22°   Ceiling: 1600
Heat Index: 31°   Visibility: 1.2mi
Dew Point: 28°   Wind: 10mph
Humidity: 89%   Direction: 20°NNE
Pressure: 30.09"   Gusts: NA
Location:  43.3608°N, 76.3536°W
Report Text: KFZY 262154Z AUTO 02009KT 1 1/4SM -SN BR FEW006 SCT010 OVC016 M01/M02 A3009 RMK AO2 SLP193 P0001 T10061022
Loading
Personal Weather Stations






























Interactive Weather Map New forecast layout! Learn more

10-Day Weather Forecast

Advertisements
Track Severe Weather on mobile